sensor_id;sensor_type;location;lat;lon;timestamp;pressure;altitude;pressure_sealevel;temperature;humidity
52105;BME280;38103;42.776;23.112;2023-02-16T00:00:46;95155.53;;;-1.67;96.27
52105;BME280;38103;42.776;23.112;2023-02-16T00:03:17;95155.03;;;-1.82;99.36
52105;BME280;38103;42.776;23.112;2023-02-16T00:05:43;95154.84;;;-1.91;100.00
52105;BME280;38103;42.776;23.112;2023-02-16T00:08:09;95122.00;;;-2.11;100.00
52105;BME280;38103;42.776;23.112;2023-02-16T00:10:36;95149.16;;;-1.84;100.00
52105;BME280;38103;42.776;23.112;2023-02-16T00:13:26;95154.84;;;-1.91;100.00
52105;BME280;38103;42.776;23.112;2023-02-16T00:16:18;95147.94;;;-1.80;99.18
52105;BME280;38103;42.776;23.112;2023-02-16T00:18:44;95134.88;;;-2.00;99.53
52105;BME280;38103;42.776;23.112;2023-02-16T00:21:10;95150.81;;;-1.83;99.60
52105;BME280;38103;42.776;23.112;2023-02-16T00:23:35;95135.75;;;-1.89;100.00
52105;BME280;38103;42.776;23.112;2023-02-16T00:26:01;95146.44;;;-1.83;99.39
52105;BME280;38103;42.776;23.112;2023-02-16T00:28:27;95150.09;;;-1.85;99.96
52105;BME280;38103;42.776;23.112;2023-02-16T00:30:52;95147.78;;;-1.88;100.00
52105;BME280;38103;42.776;23.112;2023-02-16T00:33:19;95148.22;;;-1.83;100.00
52105;BME280;38103;42.776;23.112;2023-02-16T00:35:45;95152.25;;;-1.69;100.00
52105;BME280;38103;42.776;23.112;2023-02-16T00:38:11;95136.88;;;-1.82;100.00
52105;BME280;38103;42.776;23.112;2023-02-16T00:40:37;95153.31;;;-1.72;100.00
52105;BME280;38103;42.776;23.112;2023-02-16T00:43:03;95148.97;;;-1.71;100.00
52105;BME280;38103;42.776;23.112;2023-02-16T00:45:29;95154.88;;;-1.59;99.68
52105;BME280;38103;42.776;23.112;2023-02-16T00:47:57;95148.75;;;-1.58;98.10
52105;BME280;38103;42.776;23.112;2023-02-16T00:50:26;95141.66;;;-1.56;97.42
52105;BME280;38103;42.776;23.112;2023-02-16T00:52:52;95146.50;;;-1.41;96.18
52105;BME280;38103;42.776;23.112;2023-02-16T00:55:20;95145.56;;;-1.40;95.09
52105;BME280;38103;42.776;23.112;2023-02-16T01:00:24;95144.78;;;-1.31;94.22
52105;BME280;38103;42.776;23.112;2023-02-16T01:02:55;95139.88;;;-1.34;92.42
52105;BME280;38103;42.776;23.112;2023-02-16T01:05:21;95150.72;;;-1.50;91.42
52105;BME280;38103;42.776;23.112;2023-02-16T01:07:46;95140.00;;;-1.57;91.77
52105;BME280;38103;42.776;23.112;2023-02-16T01:10:31;95144.34;;;-1.67;91.71
52105;BME280;38103;42.776;23.112;2023-02-16T01:13:15;95142.94;;;-1.93;93.19
52105;BME280;38103;42.776;23.112;2023-02-16T01:15:41;95140.50;;;-1.95;94.31
52105;BME280;38103;42.776;23.112;2023-02-16T01:18:07;95141.84;;;-2.22;94.69
52105;BME280;38103;42.776;23.112;2023-02-16T01:20:33;95141.50;;;-2.29;95.82
52105;BME280;38103;42.776;23.112;2023-02-16T01:23:00;95131.28;;;-2.42;97.50
52105;BME280;38103;42.776;23.112;2023-02-16T01:25:26;95129.47;;;-2.51;98.48
52105;BME280;38103;42.776;23.112;2023-02-16T01:27:51;95121.03;;;-2.65;100.00
52105;BME280;38103;42.776;23.112;2023-02-16T01:30:21;95116.66;;;-2.53;100.00
52105;BME280;38103;42.776;23.112;2023-02-16T01:32:47;95107.28;;;-2.44;99.93
52105;BME280;38103;42.776;23.112;2023-02-16T01:35:22;95118.31;;;-2.30;99.62
52105;BME280;38103;42.776;23.112;2023-02-16T01:37:48;95116.84;;;-2.23;100.00
52105;BME280;38103;42.776;23.112;2023-02-16T01:42:51;95110.63;;;-1.99;100.00
52105;BME280;38103;42.776;23.112;2023-02-16T01:45:32;95102.75;;;-1.87;100.00
52105;BME280;38103;42.776;23.112;2023-02-16T01:48:04;95108.50;;;-1.84;100.00
52105;BME280;38103;42.776;23.112;2023-02-16T01:50:41;95103.88;;;-1.80;100.00
52105;BME280;38103;42.776;23.112;2023-02-16T01:53:18;95103.94;;;-1.70;100.00
52105;BME280;38103;42.776;23.112;2023-02-16T01:55:47;95098.47;;;-1.67;100.00
52105;BME280;38103;42.776;23.112;2023-02-16T01:58:22;95104.78;;;-1.60;100.00
52105;BME280;38103;42.776;23.112;2023-02-16T02:03:25;95096.91;;;-1.58;100.00
52105;BME280;38103;42.776;23.112;2023-02-16T02:06:32;95093.06;;;-1.54;100.00
52105;BME280;38103;42.776;23.112;2023-02-16T02:09:19;95033.09;;;-1.81;99.67
52105;BME280;38103;42.776;23.112;2023-02-16T02:12:05;95098.84;;;-1.50;100.00
52105;BME280;38103;42.776;23.112;2023-02-16T02:14:36;95094.19;;;-1.47;99.50
52105;BME280;38103;42.776;23.112;2023-02-16T02:17:10;95087.94;;;-1.44;98.83
52105;BME280;38103;42.776;23.112;2023-02-16T02:25:03;95077.84;;;-1.37;95.83
52105;BME280;38103;42.776;23.112;2023-02-16T02:27:40;95093.44;;;-1.69;92.55
52105;BME280;38103;42.776;23.112;2023-02-16T02:30:27;95085.72;;;-2.11;93.10
52105;BME280;38103;42.776;23.112;2023-02-16T02:33:11;95095.88;;;-2.20;95.11
52105;BME280;38103;42.776;23.112;2023-02-16T02:38:31;95098.28;;;-2.28;95.62
52105;BME280;38103;42.776;23.112;2023-02-16T02:41:21;95054.13;;;-2.48;95.44
52105;BME280;38103;42.776;23.112;2023-02-16T02:43:59;95095.75;;;-2.40;97.71
52105;BME280;38103;42.776;23.112;2023-02-16T02:46:32;95098.16;;;-2.48;98.75
52105;BME280;38103;42.776;23.112;2023-02-16T02:48:59;95102.25;;;-2.45;99.27
52105;BME280;38103;42.776;23.112;2023-02-16T02:51:24;95097.53;;;-2.40;98.80
52105;BME280;38103;42.776;23.112;2023-02-16T02:54:15;95103.19;;;-2.47;98.84
52105;BME280;38103;42.776;23.112;2023-02-16T02:57:33;95105.00;;;-2.59;98.91
52105;BME280;38103;42.776;23.112;2023-02-16T03:03:18;95100.97;;;-2.51;100.00
52105;BME280;38103;42.776;23.112;2023-02-16T03:05:50;95098.25;;;-2.50;100.00
52105;BME280;38103;42.776;23.112;2023-02-16T03:08:18;95098.88;;;-2.58;100.00
52105;BME280;38103;42.776;23.112;2023-02-16T03:10:51;95050.03;;;-2.84;100.00
52105;BME280;38103;42.776;23.112;2023-02-16T03:13:43;95103.78;;;-2.43;100.00
52105;BME280;38103;42.776;23.112;2023-02-16T03:16:19;95102.56;;;-2.39;100.00
52105;BME280;38103;42.776;23.112;2023-02-16T03:18:47;95098.53;;;-2.31;100.00
52105;BME280;38103;42.776;23.112;2023-02-16T03:21:33;95070.16;;;-2.54;100.00
52105;BME280;38103;42.776;23.112;2023-02-16T03:24:24;95092.41;;;-2.30;100.00
52105;BME280;38103;42.776;23.112;2023-02-16T03:27:11;95094.25;;;-2.42;100.00
52105;BME280;38103;42.776;23.112;2023-02-16T03:29:58;95074.31;;;-2.63;100.00
52105;BME280;38103;42.776;23.112;2023-02-16T03:32:25;95096.88;;;-2.54;100.00
52105;BME280;38103;42.776;23.112;2023-02-16T03:34:50;95090.53;;;-2.61;100.00
52105;BME280;38103;42.776;23.112;2023-02-16T03:37:15;95090.84;;;-2.54;100.00
52105;BME280;38103;42.776;23.112;2023-02-16T03:39:41;95082.41;;;-2.56;100.00
52105;BME280;38103;42.776;23.112;2023-02-16T03:42:29;95067.41;;;-2.74;100.00
52105;BME280;38103;42.776;23.112;2023-02-16T03:44:55;95089.47;;;-2.59;100.00
52105;BME280;38103;42.776;23.112;2023-02-16T03:47:20;95093.69;;;-2.58;100.00
52105;BME280;38103;42.776;23.112;2023-02-16T03:49:46;95093.00;;;-2.60;100.00
52105;BME280;38103;42.776;23.112;2023-02-16T03:52:11;95086.19;;;-2.61;100.00
52105;BME280;38103;42.776;23.112;2023-02-16T03:54:36;95082.97;;;-2.53;100.00
52105;BME280;38103;42.776;23.112;2023-02-16T03:57:02;95079.56;;;-2.53;100.00
52105;BME280;38103;42.776;23.112;2023-02-16T03:59:27;95088.72;;;-2.49;100.00
52105;BME280;38103;42.776;23.112;2023-02-16T04:01:52;95082.53;;;-2.37;100.00
52105;BME280;38103;42.776;23.112;2023-02-16T04:04:19;95077.06;;;-2.22;100.00
52105;BME280;38103;42.776;23.112;2023-02-16T04:06:44;95073.44;;;-2.09;100.00
52105;BME280;38103;42.776;23.112;2023-02-16T04:09:10;95074.56;;;-2.02;100.00
52105;BME280;38103;42.776;23.112;2023-02-16T04:11:35;95071.06;;;-2.01;100.00
52105;BME280;38103;42.776;23.112;2023-02-16T04:14:19;95073.88;;;-2.47;100.00
52105;BME280;38103;42.776;23.112;2023-02-16T04:16:45;95075.97;;;-2.41;100.00
52105;BME280;38103;42.776;23.112;2023-02-16T04:19:10;95074.69;;;-2.68;100.00
52105;BME280;38103;42.776;23.112;2023-02-16T04:21:36;95082.09;;;-2.63;100.00
52105;BME280;38103;42.776;23.112;2023-02-16T04:24:01;95079.59;;;-2.65;100.00
52105;BME280;38103;42.776;23.112;2023-02-16T04:26:30;95078.97;;;-2.78;100.00
52105;BME280;38103;42.776;23.112;2023-02-16T04:28:55;95075.00;;;-2.94;100.00
52105;BME280;38103;42.776;23.112;2023-02-16T04:31:21;95085.44;;;-3.17;100.00
52105;BME280;38103;42.776;23.112;2023-02-16T04:33:46;95082.56;;;-3.03;100.00
52105;BME280;38103;42.776;23.112;2023-02-16T04:36:11;95076.44;;;-3.01;99.04
52105;BME280;38103;42.776;23.112;2023-02-16T04:38:37;95077.63;;;-3.06;98.08
52105;BME280;38103;42.776;23.112;2023-02-16T04:41:02;95084.91;;;-3.11;98.19
52105;BME280;38103;42.776;23.112;2023-02-16T04:43:27;95083.41;;;-3.14;98.08
52105;BME280;38103;42.776;23.112;2023-02-16T04:45:53;95077.19;;;-3.22;97.94
52105;BME280;38103;42.776;23.112;2023-02-16T04:48:18;95100.00;;;-3.28;97.63
52105;BME280;38103;42.776;23.112;2023-02-16T04:50:44;95090.13;;;-3.34;97.70
52105;BME280;38103;42.776;23.112;2023-02-16T04:53:09;95095.81;;;-3.40;97.80
52105;BME280;38103;42.776;23.112;2023-02-16T04:55:34;95073.72;;;-3.56;97.55
52105;BME280;38103;42.776;23.112;2023-02-16T04:58:00;95018.50;;;-4.01;97.85
52105;BME280;38103;42.776;23.112;2023-02-16T05:00:25;95104.00;;;-3.58;97.78
52105;BME280;38103;42.776;23.112;2023-02-16T05:02:50;95101.91;;;-3.64;97.68
52105;BME280;38103;42.776;23.112;2023-02-16T05:05:16;95106.38;;;-3.66;98.36
52105;BME280;38103;42.776;23.112;2023-02-16T05:07:41;95106.59;;;-3.70;98.37
52105;BME280;38103;42.776;23.112;2023-02-16T05:10:07;95106.50;;;-3.79;97.73
52105;BME280;38103;42.776;23.112;2023-02-16T05:12:32;95111.06;;;-3.83;98.99
52105;BME280;38103;42.776;23.112;2023-02-16T05:15:16;95114.81;;;-3.87;99.89
52105;BME280;38103;42.776;23.112;2023-02-16T05:17:42;95109.28;;;-3.94;99.96
52105;BME280;38103;42.776;23.112;2023-02-16T05:20:07;95111.25;;;-4.09;100.00
52105;BME280;38103;42.776;23.112;2023-02-16T05:22:33;95119.47;;;-4.04;100.00
52105;BME280;38103;42.776;23.112;2023-02-16T05:24:59;95118.31;;;-4.00;100.00
52105;BME280;38103;42.776;23.112;2023-02-16T05:27:27;95112.47;;;-4.02;100.00
52105;BME280;38103;42.776;23.112;2023-02-16T05:29:52;95070.13;;;-4.35;100.00
52105;BME280;38103;42.776;23.112;2023-02-16T05:32:19;95118.56;;;-3.92;100.00
52105;BME280;38103;42.776;23.112;2023-02-16T05:34:44;95120.66;;;-3.97;100.00
52105;BME280;38103;42.776;23.112;2023-02-16T05:37:11;95125.22;;;-4.12;100.00
52105;BME280;38103;42.776;23.112;2023-02-16T05:39:38;95116.19;;;-4.06;100.00
52105;BME280;38103;42.776;23.112;2023-02-16T05:42:04;95121.97;;;-4.02;100.00
52105;BME280;38103;42.776;23.112;2023-02-16T05:44:29;95124.00;;;-3.72;100.00
52105;BME280;38103;42.776;23.112;2023-02-16T05:46:54;95124.34;;;-3.42;100.00
52105;BME280;38103;42.776;23.112;2023-02-16T05:49:20;95090.88;;;-3.43;100.00
52105;BME280;38103;42.776;23.112;2023-02-16T05:51:45;95131.34;;;-2.86;100.00
52105;BME280;38103;42.776;23.112;2023-02-16T05:54:11;95121.47;;;-2.60;100.00
52105;BME280;38103;42.776;23.112;2023-02-16T05:56:45;95136.59;;;-2.43;100.00
52105;BME280;38103;42.776;23.112;2023-02-16T05:59:11;95138.28;;;-2.21;99.59
52105;BME280;38103;42.776;23.112;2023-02-16T06:01:37;95134.38;;;-1.94;97.86
52105;BME280;38103;42.776;23.112;2023-02-16T06:04:06;95099.22;;;-1.86;96.74
52105;BME280;38103;42.776;23.112;2023-02-16T06:06:31;95136.16;;;-1.31;95.84
52105;BME280;38103;42.776;23.112;2023-02-16T06:08:57;95140.25;;;-0.97;93.88
52105;BME280;38103;42.776;23.112;2023-02-16T06:11:22;95141.66;;;-0.73;92.56
52105;BME280;38103;42.776;23.112;2023-02-16T06:14:04;95142.78;;;-0.46;91.20
52105;BME280;38103;42.776;23.112;2023-02-16T06:16:31;95104.78;;;-0.47;90.24
52105;BME280;38103;42.776;23.112;2023-02-16T06:18:58;95148.41;;;-0.01;88.42
52105;BME280;38103;42.776;23.112;2023-02-16T06:21:24;95154.53;;;0.18;86.67
52105;BME280;38103;42.776;23.112;2023-02-16T06:23:50;95159.97;;;0.35;85.43
52105;BME280;38103;42.776;23.112;2023-02-16T06:26:16;95155.09;;;0.60;83.96
52105;BME280;38103;42.776;23.112;2023-02-16T06:28:41;95156.59;;;0.62;84.02
52105;BME280;38103;42.776;23.112;2023-02-16T06:31:07;95163.97;;;0.19;84.78
52105;BME280;38103;42.776;23.112;2023-02-16T06:33:32;95152.28;;;0.43;84.98
52105;BME280;38103;42.776;23.112;2023-02-16T06:35:58;95146.75;;;0.66;83.75
52105;BME280;38103;42.776;23.112;2023-02-16T06:38:23;95143.00;;;1.07;82.52
52105;BME280;38103;42.776;23.112;2023-02-16T06:40:52;95128.94;;;0.99;81.15
52105;BME280;38103;42.776;23.112;2023-02-16T06:43:18;95103.44;;;0.65;82.01
52105;BME280;38103;42.776;23.112;2023-02-16T06:45:43;95153.25;;;1.18;80.41
52105;BME280;38103;42.776;23.112;2023-02-16T06:48:09;95150.03;;;1.25;80.27
52105;BME280;38103;42.776;23.112;2023-02-16T06:50:34;95147.25;;;1.73;78.90
52105;BME280;38103;42.776;23.112;2023-02-16T06:53:00;95138.44;;;2.10;77.21
52105;BME280;38103;42.776;23.112;2023-02-16T06:55:25;95140.53;;;2.33;75.22
52105;BME280;38103;42.776;23.112;2023-02-16T06:57:50;95142.03;;;2.36;73.99
52105;BME280;38103;42.776;23.112;2023-02-16T07:00:16;95132.88;;;1.87;75.67
52105;BME280;38103;42.776;23.112;2023-02-16T07:02:41;95122.44;;;2.32;74.64
52105;BME280;38103;42.776;23.112;2023-02-16T07:05:08;95136.63;;;2.29;75.18
52105;BME280;38103;42.776;23.112;2023-02-16T07:07:33;95129.81;;;2.37;74.40
52105;BME280;38103;42.776;23.112;2023-02-16T07:09:58;95126.84;;;2.93;73.96
52105;BME280;38103;42.776;23.112;2023-02-16T07:12:24;95132.03;;;2.58;73.79
52105;BME280;38103;42.776;23.112;2023-02-16T07:14:49;95120.72;;;3.19;73.16
52105;BME280;38103;42.776;23.112;2023-02-16T07:17:15;95118.75;;;3.21;71.83
52105;BME280;38103;42.776;23.112;2023-02-16T07:19:40;95131.41;;;2.91;75.15
52105;BME280;38103;42.776;23.112;2023-02-16T07:22:06;95124.31;;;2.48;77.74
52105;BME280;38103;42.776;23.112;2023-02-16T07:24:31;95129.41;;;2.85;77.34
52105;BME280;38103;42.776;23.112;2023-02-16T07:26:57;95125.28;;;3.26;76.58
52105;BME280;38103;42.776;23.112;2023-02-16T07:29:22;95130.13;;;3.72;74.55
52105;BME280;38103;42.776;23.112;2023-02-16T07:31:47;95103.09;;;3.38;74.95
52105;BME280;38103;42.776;23.112;2023-02-16T07:34:13;95126.88;;;3.10;75.33
52105;BME280;38103;42.776;23.112;2023-02-16T07:36:38;95106.78;;;3.10;77.14
52105;BME280;38103;42.776;23.112;2023-02-16T07:39:04;95121.44;;;3.46;75.34
52105;BME280;38103;42.776;23.112;2023-02-16T07:41:29;95115.53;;;3.44;74.77
52105;BME280;38103;42.776;23.112;2023-02-16T07:43:54;95121.13;;;3.50;74.57
52105;BME280;38103;42.776;23.112;2023-02-16T07:46:20;95117.00;;;3.39;74.91
52105;BME280;38103;42.776;23.112;2023-02-16T07:48:47;95120.19;;;4.09;74.05
52105;BME280;38103;42.776;23.112;2023-02-16T07:51:18;95127.31;;;3.49;74.30
52105;BME280;38103;42.776;23.112;2023-02-16T07:53:44;95115.72;;;3.60;74.88
52105;BME280;38103;42.776;23.112;2023-02-16T07:56:18;95117.88;;;3.89;73.83
52105;BME280;38103;42.776;23.112;2023-02-16T07:58:43;95118.00;;;3.71;74.72
52105;BME280;38103;42.776;23.112;2023-02-16T08:01:09;95127.03;;;3.94;74.03
52105;BME280;38103;42.776;23.112;2023-02-16T08:03:35;95127.16;;;4.51;71.52
52105;BME280;38103;42.776;23.112;2023-02-16T08:06:02;95123.66;;;4.67;70.80
52105;BME280;38103;42.776;23.112;2023-02-16T08:08:28;95122.38;;;5.11;69.63
52105;BME280;38103;42.776;23.112;2023-02-16T08:10:53;95133.47;;;5.22;68.63
52105;BME280;38103;42.776;23.112;2023-02-16T08:13:18;95131.38;;;4.60;68.65
52105;BME280;38103;42.776;23.112;2023-02-16T08:15:44;95139.38;;;5.16;68.06
52105;BME280;38103;42.776;23.112;2023-02-16T08:18:09;95141.38;;;5.05;67.05
52105;BME280;38103;42.776;23.112;2023-02-16T08:20:35;95135.91;;;5.23;68.07
52105;BME280;38103;42.776;23.112;2023-02-16T08:23:00;95142.91;;;4.99;67.46
52105;BME280;38103;42.776;23.112;2023-02-16T08:25:26;95140.91;;;4.36;69.94
52105;BME280;38103;42.776;23.112;2023-02-16T08:27:51;95145.34;;;4.35;71.63
52105;BME280;38103;42.776;23.112;2023-02-16T08:30:16;95136.34;;;4.21;71.41
52105;BME280;38103;42.776;23.112;2023-02-16T08:32:42;95135.88;;;3.76;74.15
52105;BME280;38103;42.776;23.112;2023-02-16T08:35:08;95140.31;;;3.23;76.23
52105;BME280;38103;42.776;23.112;2023-02-16T08:37:36;95138.59;;;2.97;78.27
52105;BME280;38103;42.776;23.112;2023-02-16T08:40:03;95140.25;;;2.98;79.49
52105;BME280;38103;42.776;23.112;2023-02-16T08:42:28;95143.81;;;2.97;79.57
52105;BME280;38103;42.776;23.112;2023-02-16T08:44:54;95145.69;;;2.78;80.92
52105;BME280;38103;42.776;23.112;2023-02-16T08:47:19;95142.56;;;3.10;80.61
52105;BME280;38103;42.776;23.112;2023-02-16T08:49:45;95140.03;;;3.35;80.29
52105;BME280;38103;42.776;23.112;2023-02-16T08:52:11;95140.91;;;3.61;76.76
52105;BME280;38103;42.776;23.112;2023-02-16T08:54:36;95136.19;;;4.06;77.37
52105;BME280;38103;42.776;23.112;2023-02-16T08:57:03;95129.97;;;3.82;76.09
52105;BME280;38103;42.776;23.112;2023-02-16T08:59:28;95135.38;;;4.22;75.00
52105;BME280;38103;42.776;23.112;2023-02-16T09:01:56;95131.56;;;4.50;74.86
52105;BME280;38103;42.776;23.112;2023-02-16T09:04:22;95139.56;;;4.74;73.02
52105;BME280;38103;42.776;23.112;2023-02-16T09:06:50;95133.81;;;4.62;72.21
52105;BME280;38103;42.776;23.112;2023-02-16T09:09:17;95133.38;;;4.41;72.80
52105;BME280;38103;42.776;23.112;2023-02-16T09:11:43;95132.53;;;4.57;72.90
52105;BME280;38103;42.776;23.112;2023-02-16T09:14:08;95130.88;;;4.73;72.39
52105;BME280;38103;42.776;23.112;2023-02-16T09:16:35;95129.66;;;4.35;73.55
52105;BME280;38103;42.776;23.112;2023-02-16T09:19:04;95110.31;;;4.36;73.06
52105;BME280;38103;42.776;23.112;2023-02-16T09:21:31;95132.56;;;4.98;73.07
52105;BME280;38103;42.776;23.112;2023-02-16T09:23:58;95131.19;;;4.70;71.29
52105;BME280;38103;42.776;23.112;2023-02-16T09:26:25;95127.81;;;4.53;71.44
52105;BME280;38103;42.776;23.112;2023-02-16T09:28:52;95126.97;;;4.61;73.68
52105;BME280;38103;42.776;23.112;2023-02-16T09:31:21;95132.53;;;4.57;73.37
52105;BME280;38103;42.776;23.112;2023-02-16T09:33:52;95117.88;;;4.88;71.78
52105;BME280;38103;42.776;23.112;2023-02-16T09:36:18;95123.28;;;4.87;70.63
52105;BME280;38103;42.776;23.112;2023-02-16T09:38:43;95126.59;;;4.72;71.20
52105;BME280;38103;42.776;23.112;2023-02-16T09:41:22;95119.56;;;5.13;70.73
52105;BME280;38103;42.776;23.112;2023-02-16T09:43:52;95122.44;;;5.35;70.01
52105;BME280;38103;42.776;23.112;2023-02-16T09:46:21;95109.88;;;5.54;67.85
52105;BME280;38103;42.776;23.112;2023-02-16T09:48:48;95112.88;;;5.42;69.73
52105;BME280;38103;42.776;23.112;2023-02-16T09:53:58;95102.13;;;5.29;69.50
52105;BME280;38103;42.776;23.112;2023-02-16T09:56:37;95100.41;;;5.44;68.47
52105;BME280;38103;42.776;23.112;2023-02-16T09:59:12;95100.06;;;5.47;68.35
52105;BME280;38103;42.776;23.112;2023-02-16T10:02:41;95086.75;;;5.73;67.90
52105;BME280;38103;42.776;23.112;2023-02-16T10:05:02;95084.78;;;5.75;67.06
52105;BME280;38103;42.776;23.112;2023-02-16T10:10:21;95079.91;;;5.95;67.32
52105;BME280;38103;42.776;23.112;2023-02-16T10:12:59;95079.75;;;5.88;67.71
52105;BME280;38103;42.776;23.112;2023-02-16T10:15:30;95070.16;;;5.57;69.01
52105;BME280;38103;42.776;23.112;2023-02-16T10:18:08;95076.31;;;5.88;68.11
52105;BME280;38103;42.776;23.112;2023-02-16T10:20:41;95068.25;;;5.74;68.42
52105;BME280;38103;42.776;23.112;2023-02-16T10:26:23;95045.16;;;5.69;68.51
52105;BME280;38103;42.776;23.112;2023-02-16T10:28:57;95049.00;;;5.82;67.97
52105;BME280;38103;42.776;23.112;2023-02-16T10:41:43;95049.38;;;6.48;66.26
52105;BME280;38103;42.776;23.112;2023-02-16T10:44:19;95048.94;;;6.59;65.66
52105;BME280;38103;42.776;23.112;2023-02-16T10:46:51;95045.81;;;6.71;65.95
52105;BME280;38103;42.776;23.112;2023-02-16T10:49:20;95038.75;;;6.87;64.60
52105;BME280;38103;42.776;23.112;2023-02-16T10:51:48;95035.69;;;7.20;63.66
52105;BME280;38103;42.776;23.112;2023-02-16T10:54:22;95029.78;;;7.18;62.71
52105;BME280;38103;42.776;23.112;2023-02-16T10:59:23;95019.63;;;7.15;64.17
52105;BME280;38103;42.776;23.112;2023-02-16T11:01:54;95009.25;;;7.29;63.51
52105;BME280;38103;42.776;23.112;2023-02-16T11:07:04;95014.09;;;6.88;63.01
52105;BME280;38103;42.776;23.112;2023-02-16T11:09:30;95016.03;;;7.16;63.44
52105;BME280;38103;42.776;23.112;2023-02-16T11:11:56;95008.91;;;7.32;63.08
52105;BME280;38103;42.776;23.112;2023-02-16T11:14:29;95005.75;;;7.43;62.06
52105;BME280;38103;42.776;23.112;2023-02-16T11:17:07;94997.81;;;7.36;62.66
52105;BME280;38103;42.776;23.112;2023-02-16T11:19:33;94999.97;;;7.77;61.67
52105;BME280;38103;42.776;23.112;2023-02-16T11:21:59;94996.38;;;7.85;59.34
52105;BME280;38103;42.776;23.112;2023-02-16T11:24:33;94998.16;;;7.55;60.58
52105;BME280;38103;42.776;23.112;2023-02-16T11:27:19;94992.16;;;7.62;60.56
52105;BME280;38103;42.776;23.112;2023-02-16T11:29:44;94958.06;;;7.53;60.19
52105;BME280;38103;42.776;23.112;2023-02-16T11:32:11;94983.91;;;7.93;58.37
52105;BME280;38103;42.776;23.112;2023-02-16T11:34:45;94985.97;;;8.05;60.08
52105;BME280;38103;42.776;23.112;2023-02-16T11:37:29;94983.06;;;8.22;59.75
52105;BME280;38103;42.776;23.112;2023-02-16T11:39:57;94989.06;;;8.51;57.33
52105;BME280;38103;42.776;23.112;2023-02-16T11:42:39;94979.91;;;8.82;55.78
52105;BME280;38103;42.776;23.112;2023-02-16T11:45:07;94975.31;;;8.56;55.81
52105;BME280;38103;42.776;23.112;2023-02-16T11:47:36;94947.63;;;8.31;55.59
52105;BME280;38103;42.776;23.112;2023-02-16T11:50:25;94981.88;;;8.67;55.53
52105;BME280;38103;42.776;23.112;2023-02-16T11:52:56;94974.19;;;8.72;55.88
52105;BME280;38103;42.776;23.112;2023-02-16T11:55:30;94972.59;;;8.71;55.22
52105;BME280;38103;42.776;23.112;2023-02-16T11:58:14;94961.31;;;9.04;54.21
52105;BME280;38103;42.776;23.112;2023-02-16T12:00:58;94962.06;;;8.85;52.90
52105;BME280;38103;42.776;23.112;2023-02-16T12:09:09;94946.09;;;9.07;52.78
52105;BME280;38103;42.776;23.112;2023-02-16T12:17:18;94936.91;;;8.82;52.47
52105;BME280;38103;42.776;23.112;2023-02-16T12:22:39;94932.91;;;9.20;52.09
52105;BME280;38103;42.776;23.112;2023-02-16T12:27:51;94926.44;;;9.50;50.89
52105;BME280;38103;42.776;23.112;2023-02-16T12:35:40;94920.97;;;9.79;48.61
52105;BME280;38103;42.776;23.112;2023-02-16T12:39:28;94913.41;;;9.82;48.38
52105;BME280;38103;42.776;23.112;2023-02-16T12:44:41;94912.25;;;9.58;48.79
52105;BME280;38103;42.776;23.112;2023-02-16T12:50:05;94911.81;;;9.75;47.72
52105;BME280;38103;42.776;23.112;2023-02-16T12:57:48;94901.16;;;10.22;45.95
52105;BME280;38103;42.776;23.112;2023-02-16T13:03:57;94890.91;;;10.39;45.10
52105;BME280;38103;42.776;23.112;2023-02-16T13:06:26;94879.66;;;10.05;45.53
52105;BME280;38103;42.776;23.112;2023-02-16T13:12:04;94892.22;;;10.16;46.54
52105;BME280;38103;42.776;23.112;2023-02-16T13:14:34;94889.78;;;10.08;45.09
52105;BME280;38103;42.776;23.112;2023-02-16T13:17:27;94887.31;;;10.27;44.91
52105;BME280;38103;42.776;23.112;2023-02-16T13:19:56;94877.50;;;10.34;45.48
52105;BME280;38103;42.776;23.112;2023-02-16T13:22:45;94870.47;;;10.14;45.03
52105;BME280;38103;42.776;23.112;2023-02-16T13:28:43;94868.69;;;10.01;45.41
52105;BME280;38103;42.776;23.112;2023-02-16T13:34:20;94871.09;;;10.03;45.66
52105;BME280;38103;42.776;23.112;2023-02-16T13:36:59;94866.63;;;10.03;45.39
52105;BME280;38103;42.776;23.112;2023-02-16T13:39:35;94865.16;;;10.21;45.25
52105;BME280;38103;42.776;23.112;2023-02-16T13:44:40;94859.72;;;10.09;45.54
52105;BME280;38103;42.776;23.112;2023-02-16T13:47:09;94864.41;;;10.07;45.33
52105;BME280;38103;42.776;23.112;2023-02-16T13:49:37;94859.31;;;10.12;45.45
52105;BME280;38103;42.776;23.112;2023-02-16T13:52:07;94854.75;;;10.33;44.74
52105;BME280;38103;42.776;23.112;2023-02-16T13:54:36;94861.59;;;10.48;43.36
52105;BME280;38103;42.776;23.112;2023-02-16T13:57:04;94860.75;;;10.54;43.61
52105;BME280;38103;42.776;23.112;2023-02-16T14:02:01;94855.34;;;10.81;43.22
52105;BME280;38103;42.776;23.112;2023-02-16T14:12:12;94846.06;;;10.65;43.89
52105;BME280;38103;42.776;23.112;2023-02-16T14:20:05;94845.34;;;10.83;43.22
52105;BME280;38103;42.776;23.112;2023-02-16T14:40:59;94849.81;;;10.90;42.87
52105;BME280;38103;42.776;23.112;2023-02-16T14:43:38;94847.75;;;10.92;43.42
52105;BME280;38103;42.776;23.112;2023-02-16T14:54:53;94845.19;;;10.78;42.42
52105;BME280;38103;42.776;23.112;2023-02-16T14:57:30;94844.72;;;10.88;41.87
52105;BME280;38103;42.776;23.112;2023-02-16T15:00:02;94840.19;;;10.95;41.82
52105;BME280;38103;42.776;23.112;2023-02-16T15:02:34;94839.97;;;10.97;41.29
52105;BME280;38103;42.776;23.112;2023-02-16T15:05:17;94838.41;;;10.89;41.43
52105;BME280;38103;42.776;23.112;2023-02-16T15:07:45;94842.72;;;10.83;41.82
52105;BME280;38103;42.776;23.112;2023-02-16T15:10:15;94843.13;;;10.80;41.93
52105;BME280;38103;42.776;23.112;2023-02-16T15:12:46;94842.31;;;10.80;42.08
52105;BME280;38103;42.776;23.112;2023-02-16T15:15:24;94834.19;;;10.75;42.37
52105;BME280;38103;42.776;23.112;2023-02-16T15:17:51;94818.25;;;10.56;42.85
52105;BME280;38103;42.776;23.112;2023-02-16T15:20:29;94817.41;;;10.23;43.48
52105;BME280;38103;42.776;23.112;2023-02-16T15:22:58;94842.00;;;10.16;45.03